Time;durP1;ratioP1;P1;durP2;ratioP2;P2;SDS_P1;SDS_P2;PMS_P1;PMS_P2;Temp;Humidity;BMP_temperature;BMP_pressure;BME280_temperature;BME280_humidity;BME280_pressure;Samples;Min_cycle;Max_cycle;Signal;HPM_P1;HPM_P2
2023/03/17 00:00:17;;;;;;;6.15;4.30;;;;;;;;;;6072983;23;20037;-81
2023/03/17 00:02:46;;;;;;;5.72;3.92;;;;;;;;;;6075107;23;20091;-81
2023/03/17 00:05:18;;;;;;;5.22;4.15;;;;;;;;;;6087470;23;20023;-81
2023/03/17 00:07:45;;;;;;;7.50;4.57;;;;;;;;;;6109157;23;20026;-80
2023/03/17 00:10:14;;;;;;;5.75;4.13;;;;;;;;;;6093409;23;20140;-80
2023/03/17 00:12:41;;;;;;;5.38;3.55;;;;;;;;;;6078577;23;20042;-82
2023/03/17 00:15:09;;;;;;;6.28;4.10;;;;;;;;;;6068627;23;20023;-81
2023/03/17 00:17:35;;;;;;;5.85;4.20;;;;;;;;;;6083787;23;20022;-82
2023/03/17 00:20:04;;;;;;;6.20;3.85;;;;;;;;;;6089440;23;20066;-82
2023/03/17 00:22:31;;;;;;;6.20;3.90;;;;;;;;;;6074557;23;20029;-82
2023/03/17 00:24:57;;;;;;;7.18;4.30;;;;;;;;;;6067100;23;20361;-81
2023/03/17 00:27:24;;;;;;;6.05;4.25;;;;;;;;;;6065472;23;20105;-81
2023/03/17 00:29:51;;;;;;;5.35;4.30;;;;;;;;;;6043817;23;20098;-81
2023/03/17 00:32:19;;;;;;;6.18;4.47;;;;;;;;;;6041262;23;20122;-83
2023/03/17 00:34:45;;;;;;;8.32;4.38;;;;;;;;;;6064974;23;20058;-82
2023/03/17 00:37:12;;;;;;;5.80;4.00;;;;;;;;;;6065619;23;20029;-81
2023/03/17 00:39:39;;;;;;;5.78;4.70;;;;;;;;;;6065744;23;20085;-83
2023/03/17 00:42:06;;;;;;;6.97;4.70;;;;;;;;;;6064645;23;20098;-82
2023/03/17 00:44:34;;;;;;;7.00;4.07;;;;;;;;;;6065469;23;20105;-82
2023/03/17 00:47:01;;;;;;;6.10;4.55;;;;;;;;;;6065505;23;20027;-82
2023/03/17 00:49:27;;;;;;;5.88;3.95;;;;;;;;;;6065525;23;20015;-84
2023/03/17 00:51:54;;;;;;;5.38;4.07;;;;;;;;;;6066069;23;20026;-82
2023/03/17 00:54:21;;;;;;;6.55;4.75;;;;;;;;;;6043159;23;20083;-82
2023/03/17 00:56:48;;;;;;;6.35;4.45;;;;;;;;;;6068443;23;20379;-82
2023/03/17 00:59:24;;;;;;;5.78;4.22;;;;;;;;;;6067608;23;20038;-81
2023/03/17 01:01:52;;;;;;;4.43;3.60;;;;;;;;;;6090953;23;20059;-82
2023/03/17 01:04:18;;;;;;;4.70;3.90;;;;;;;;;;6066488;23;20049;-84
2023/03/17 01:06:46;;;;;;;5.18;3.60;;;;;;;;;;6067148;23;20073;-83
2023/03/17 01:09:15;;;;;;;4.05;3.30;;;;;;;;;;6066590;23;20228;-83
2023/03/17 01:11:42;;;;;;;4.78;3.70;;;;;;;;;;6065329;23;20027;-83
2023/03/17 01:14:11;;;;;;;4.45;3.22;;;;;;;;;;6065350;23;20025;-83
2023/03/17 01:16:38;;;;;;;5.38;3.45;;;;;;;;;;6065341;23;20025;-83
2023/03/17 01:19:05;;;;;;;4.82;3.75;;;;;;;;;;6041781;23;20410;-82
2023/03/17 01:21:32;;;;;;;6.28;3.38;;;;;;;;;;6065758;23;20405;-83
2023/03/17 01:24:00;;;;;;;5.10;3.67;;;;;;;;;;6041776;23;20023;-83
2023/03/17 01:26:27;;;;;;;5.85;3.90;;;;;;;;;;6065451;23;20098;-83
2023/03/17 01:28:54;;;;;;;5.13;3.72;;;;;;;;;;6040755;23;20473;-84
2023/03/17 01:31:22;;;;;;;4.03;3.40;;;;;;;;;;6064947;23;20034;-82
2023/03/17 01:33:50;;;;;;;5.35;3.65;;;;;;;;;;6041324;23;20034;-82
2023/03/17 01:36:17;;;;;;;5.30;4.32;;;;;;;;;;6064889;23;20029;-83
2023/03/17 01:38:44;;;;;;;5.63;4.38;;;;;;;;;;6064670;23;20027;-83
2023/03/17 01:41:11;;;;;;;7.60;4.07;;;;;;;;;;6065152;23;20025;-82
2023/03/17 01:43:38;;;;;;;5.70;4.07;;;;;;;;;;6065427;23;20484;-85
2023/03/17 01:46:31;;;;;;;6.07;3.95;;;;;;;;;;6041749;23;20074;-83
2023/03/17 01:49:22;;;;;;;4.70;3.85;;;;;;;;;;6066397;23;20102;-82
2023/03/17 01:51:56;;;;;;;4.95;3.78;;;;;;;;;;6062307;23;20067;-82
2023/03/17 01:54:34;;;;;;;6.60;3.80;;;;;;;;;;6064972;23;20031;-82
2023/03/17 01:57:18;;;;;;;6.30;3.80;;;;;;;;;;6089050;23;20366;-83
2023/03/17 01:59:48;;;;;;;9.70;3.90;;;;;;;;;;6088793;23;20025;-83
2023/03/17 02:02:19;;;;;;;7.50;3.90;;;;;;;;;;6064867;23;20042;-83
2023/03/17 02:04:46;;;;;;;5.38;3.60;;;;;;;;;;6065023;23;20045;-82
2023/03/17 02:07:13;;;;;;;3.78;3.47;;;;;;;;;;6041839;23;20050;-83
2023/03/17 02:09:39;;;;;;;8.60;3.92;;;;;;;;;;6065164;23;20015;-83
2023/03/17 02:12:07;;;;;;;4.32;3.47;;;;;;;;;;6041601;23;20473;-83
2023/03/17 02:14:35;;;;;;;7.22;4.18;;;;;;;;;;6065895;23;20394;-83
2023/03/17 02:17:02;;;;;;;5.72;4.18;;;;;;;;;;6073255;23;20402;-83
2023/03/17 02:19:29;;;;;;;4.22;3.72;;;;;;;;;;6069690;23;20403;-84
2023/03/17 02:21:57;;;;;;;4.25;3.50;;;;;;;;;;6067493;23;20025;-83
2023/03/17 02:24:31;;;;;;;4.35;3.47;;;;;;;;;;6068718;23;20074;-83
2023/03/17 02:27:30;;;;;;;4.85;3.45;;;;;;;;;;6115252;23;20027;-84
2023/03/17 02:29:58;;;;;;;4.90;3.83;;;;;;;;;;6045532;23;20037;-84
2023/03/17 02:32:25;;;;;;;4.47;3.92;;;;;;;;;;6097456;23;20070;-83
2023/03/17 02:34:52;;;;;;;5.65;4.47;;;;;;;;;;6072973;23;20342;-83
2023/03/17 02:37:19;;;;;;;4.45;3.85;;;;;;;;;;6073462;23;20026;-84
2023/03/17 02:39:46;;;;;;;5.82;3.97;;;;;;;;;;6084942;23;20007;-86
2023/03/17 02:42:13;;;;;;;4.95;3.55;;;;;;;;;;6092374;23;20029;-82
2023/03/17 02:44:40;;;;;;;4.90;3.75;;;;;;;;;;6082083;23;20071;-82
2023/03/17 02:47:07;;;;;;;5.45;4.45;;;;;;;;;;6066007;23;20031;-83
2023/03/17 02:49:34;;;;;;;4.57;3.30;;;;;;;;;;6099910;23;20034;-83
2023/03/17 02:52:01;;;;;;;4.78;3.58;;;;;;;;;;6069795;23;20030;-82
2023/03/17 02:54:28;;;;;;;5.00;3.67;;;;;;;;;;6068357;23;20027;-81
2023/03/17 02:56:55;;;;;;;5.90;3.38;;;;;;;;;;6066870;23;20027;-81
2023/03/17 02:59:22;;;;;;;5.18;3.65;;;;;;;;;;6067126;23;20042;-81
2023/03/17 03:01:49;;;;;;;5.47;3.47;;;;;;;;;;6066377;23;20590;-83
2023/03/17 03:04:18;;;;;;;6.30;3.40;;;;;;;;;;6066137;23;20027;-82
2023/03/17 03:06:45;;;;;;;3.88;3.45;;;;;;;;;;6065779;23;20030;-80
2023/03/17 03:09:12;;;;;;;5.63;3.85;;;;;;;;;;6065437;23;20019;-81
2023/03/17 03:11:39;;;;;;;5.07;3.72;;;;;;;;;;6065542;23;20026;-81
2023/03/17 03:14:07;;;;;;;4.10;3.70;;;;;;;;;;6065866;23;20041;-81
2023/03/17 03:16:33;;;;;;;6.93;3.90;;;;;;;;;;6065937;23;20047;-80
2023/03/17 03:19:00;;;;;;;4.90;3.78;;;;;;;;;;6065523;23;20022;-80
2023/03/17 03:21:27;;;;;;;5.75;4.00;;;;;;;;;;6065875;23;20101;-80
2023/03/17 03:23:54;;;;;;;6.53;5.25;;;;;;;;;;6065745;23;20034;-81
2023/03/17 03:26:21;;;;;;;6.68;4.32;;;;;;;;;;6066027;23;20473;-80
2023/03/17 03:28:48;;;;;;;5.78;4.35;;;;;;;;;;6066743;23;20365;-81
2023/03/17 03:31:15;;;;;;;4.85;4.32;;;;;;;;;;6041651;23;20018;-80
2023/03/17 03:33:44;;;;;;;5.88;3.67;;;;;;;;;;6090323;23;20406;-82
2023/03/17 03:36:10;;;;;;;4.38;3.83;;;;;;;;;;6043914;23;20076;-81
2023/03/17 03:38:37;;;;;;;5.55;3.92;;;;;;;;;;6068731;23;20023;-81
2023/03/17 03:41:05;;;;;;;4.93;3.78;;;;;;;;;;6067653;23;20027;-82
2023/03/17 03:43:31;;;;;;;5.82;4.50;;;;;;;;;;6068283;23;20019;-81
2023/03/17 03:45:58;;;;;;;7.72;4.00;;;;;;;;;;6067153;23;20591;-82
2023/03/17 03:48:25;;;;;;;6.20;4.05;;;;;;;;;;6068233;23;20026;-81
2023/03/17 03:50:59;;;;;;;5.00;4.07;;;;;;;;;;6066846;23;20466;-80
2023/03/17 03:53:27;;;;;;;5.25;4.50;;;;;;;;;;6065516;23;20026;-80
2023/03/17 03:55:54;;;;;;;5.28;4.35;;;;;;;;;;6066314;23;20027;-81
2023/03/17 03:58:21;;;;;;;6.05;4.28;;;;;;;;;;6066733;23;20023;-81
2023/03/17 04:00:49;;;;;;;5.28;3.80;;;;;;;;;;6041727;23;20421;-82
2023/03/17 04:03:15;;;;;;;4.03;3.58;;;;;;;;;;6066483;23;20461;-81
2023/03/17 04:05:42;;;;;;;7.40;4.13;;;;;;;;;;6066692;23;20026;-81
2023/03/17 04:08:10;;;;;;;6.60;4.30;;;;;;;;;;6043638;23;20110;-82
2023/03/17 04:10:36;;;;;;;5.25;4.05;;;;;;;;;;6068075;23;20019;-81
2023/03/17 04:13:03;;;;;;;5.25;3.85;;;;;;;;;;6069992;23;20022;-82
2023/03/17 04:15:30;;;;;;;5.95;3.67;;;;;;;;;;6070003;23;20027;-81
2023/03/17 04:17:57;;;;;;;4.70;4.00;;;;;;;;;;6070158;23;20078;-83
2023/03/17 04:20:24;;;;;;;7.40;3.90;;;;;;;;;;6068862;23;20023;-83
2023/03/17 04:22:51;;;;;;;5.28;3.95;;;;;;;;;;6091787;23;20030;-81
2023/03/17 04:25:18;;;;;;;6.35;4.10;;;;;;;;;;6070192;23;20023;-84
2023/03/17 04:27:44;;;;;;;5.40;3.80;;;;;;;;;;6082894;23;20030;-81
2023/03/17 04:30:15;;;;;;;5.47;4.10;;;;;;;;;;6073315;23;20030;-81
2023/03/17 04:32:43;;;;;;;6.00;4.70;;;;;;;;;;6077285;23;20105;-80
2023/03/17 04:35:12;;;;;;;5.30;4.28;;;;;;;;;;6070646;23;20046;-84
2023/03/17 04:37:39;;;;;;;5.70;4.55;;;;;;;;;;6071595;23;20033;-83
2023/03/17 04:40:08;;;;;;;5.28;4.07;;;;;;;;;;6073407;23;20018;-82
2023/03/17 04:42:36;;;;;;;7.30;4.38;;;;;;;;;;6074969;23;20022;-85
2023/03/17 04:45:04;;;;;;;6.13;3.97;;;;;;;;;;6074658;23;20063;-82
2023/03/17 04:47:31;;;;;;;6.90;3.78;;;;;;;;;;6073475;23;20025;-84
2023/03/17 04:49:58;;;;;;;6.75;4.13;;;;;;;;;;6072564;23;20402;-83
2023/03/17 04:52:25;;;;;;;6.82;4.13;;;;;;;;;;6074053;23;20023;-82
2023/03/17 04:54:52;;;;;;;5.30;4.30;;;;;;;;;;6070809;23;20066;-85
2023/03/17 04:57:19;;;;;;;23.15;13.85;;;;;;;;;;6067737;23;20054;-85
2023/03/17 04:59:46;;;;;;;9.82;6.53;;;;;;;;;;6066745;23;20503;-84
2023/03/17 05:02:13;;;;;;;6.80;4.90;;;;;;;;;;6070418;23;20102;-84
2023/03/17 05:04:40;;;;;;;6.05;4.35;;;;;;;;;;6068881;23;20022;-82
2023/03/17 05:07:07;;;;;;;5.22;4.18;;;;;;;;;;6045291;23;20030;-83
2023/03/17 05:09:34;;;;;;;10.05;4.50;;;;;;;;;;6070075;23;20061;-83
2023/03/17 05:12:01;;;;;;;4.70;4.20;;;;;;;;;;6045666;23;20023;-84
2023/03/17 05:14:28;;;;;;;5.38;3.90;;;;;;;;;;6021940;23;20023;-83
2023/03/17 05:16:57;;;;;;;6.72;4.03;;;;;;;;;;6069346;23;20571;-83
2023/03/17 05:19:24;;;;;;;7.60;4.30;;;;;;;;;;6069335;23;20474;-85
2023/03/17 05:21:51;;;;;;;5.15;4.28;;;;;;;;;;6068617;23;20070;-84
2023/03/17 05:24:17;;;;;;;5.15;4.10;;;;;;;;;;6069025;23;20034;-83
2023/03/17 05:26:45;;;;;;;7.75;3.90;;;;;;;;;;6068883;23;20054;-84
2023/03/17 05:29:11;;;;;;;5.40;4.15;;;;;;;;;;6067992;23;20450;-83
2023/03/17 05:31:38;;;;;;;5.50;4.10;;;;;;;;;;6068619;23;20019;-84
2023/03/17 05:34:05;;;;;;;6.10;4.05;;;;;;;;;;6069468;23;20037;-84
2023/03/17 05:36:32;;;;;;;5.30;3.97;;;;;;;;;;6069180;23;20036;-84
2023/03/17 05:38:59;;;;;;;8.43;4.70;;;;;;;;;;6071894;23;20027;-85
2023/03/17 05:41:26;;;;;;;5.93;4.18;;;;;;;;;;6072439;23;20019;-84
2023/03/17 05:43:52;;;;;;;6.20;4.40;;;;;;;;;;6071460;23;20023;-83
2023/03/17 05:46:19;;;;;;;7.00;5.07;;;;;;;;;;6072463;23;20041;-86
2023/03/17 05:48:47;;;;;;;9.68;5.40;;;;;;;;;;6073228;23;20465;-86
2023/03/17 05:51:14;;;;;;;5.60;4.70;;;;;;;;;;6071715;23;20214;-84
2023/03/17 05:53:42;;;;;;;6.80;5.18;;;;;;;;;;6071634;23;20019;-83
2023/03/17 05:56:08;;;;;;;6.35;5.60;;;;;;;;;;6072811;23;20026;-83
2023/03/17 05:58:35;;;;;;;7.03;5.30;;;;;;;;;;6072552;23;20022;-84
2023/03/17 06:01:02;;;;;;;5.70;4.30;;;;;;;;;;6072020;23;20015;-84
2023/03/17 06:03:29;;;;;;;5.32;4.50;;;;;;;;;;6071096;23;20031;-83
2023/03/17 06:05:56;;;;;;;7.05;4.60;;;;;;;;;;6097208;23;20027;-84
2023/03/17 06:08:23;;;;;;;6.78;4.15;;;;;;;;;;6076138;23;20023;-83
2023/03/17 06:10:50;;;;;;;9.73;5.00;;;;;;;;;;6076229;23;20029;-83
2023/03/17 06:13:17;;;;;;;6.60;4.43;;;;;;;;;;6071908;23;20045;-87
2023/03/17 06:15:47;;;;;;;9.63;4.50;;;;;;;;;;6071367;23;20098;-86
2023/03/17 06:18:14;;;;;;;6.00;4.18;;;;;;;;;;6071720;23;20049;-87
2023/03/17 06:20:40;;;;;;;7.55;4.45;;;;;;;;;;6070967;23;20014;-85
2023/03/17 06:23:07;;;;;;;7.72;5.03;;;;;;;;;;6071286;23;20109;-83
2023/03/17 06:25:34;;;;;;;9.90;4.55;;;;;;;;;;6073177;23;20033;-85
2023/03/17 06:28:02;;;;;;;8.40;4.85;;;;;;;;;;6072314;23;20033;-84
2023/03/17 06:30:34;;;;;;;6.25;4.68;;;;;;;;;;6068069;23;20022;-83
2023/03/17 06:33:03;;;;;;;6.70;4.80;;;;;;;;;;6070111;23;20034;-83
2023/03/17 06:35:30;;;;;;;7.00;4.97;;;;;;;;;;6067729;23;20027;-82
2023/03/17 06:37:58;;;;;;;9.95;4.85;;;;;;;;;;6069272;23;20029;-81
2023/03/17 06:40:25;;;;;;;5.93;4.18;;;;;;;;;;6067749;23;20027;-83
2023/03/17 06:42:52;;;;;;;8.70;4.78;;;;;;;;;;6069590;23;20023;-83
2023/03/17 06:45:19;;;;;;;10.40;4.88;;;;;;;;;;6045588;23;20031;-83
2023/03/17 06:47:45;;;;;;;6.88;5.15;;;;;;;;;;6068829;23;20032;-83
2023/03/17 06:50:12;;;;;;;6.70;4.75;;;;;;;;;;6044687;23;20029;-83
2023/03/17 06:52:40;;;;;;;5.70;4.30;;;;;;;;;;6069315;23;20037;-83
2023/03/17 06:55:07;;;;;;;8.77;4.70;;;;;;;;;;6068035;23;20083;-77
2023/03/17 06:57:34;;;;;;;8.43;4.57;;;;;;;;;;6065523;23;20027;-78
2023/03/17 07:00:02;;;;;;;8.70;5.30;;;;;;;;;;6066551;23;20023;-78
2023/03/17 07:02:28;;;;;;;7.40;4.35;;;;;;;;;;6042090;23;20033;-77
2023/03/17 07:04:56;;;;;;;5.40;4.32;;;;;;;;;;6065981;23;20034;-78
2023/03/17 07:07:24;;;;;;;10.38;4.72;;;;;;;;;;6042745;23;20038;-79
2023/03/17 07:09:51;;;;;;;6.72;4.68;;;;;;;;;;6065405;23;20023;-76
2023/03/17 07:12:18;;;;;;;6.72;4.78;;;;;;;;;;6063290;23;20023;-78
2023/03/17 07:14:45;;;;;;;6.68;4.85;;;;;;;;;;6062250;23;20031;-77
2023/03/17 07:17:13;;;;;;;7.28;4.80;;;;;;;;;;6062703;23;20023;-80
2023/03/17 07:19:40;;;;;;;6.07;4.30;;;;;;;;;;6065511;23;20037;-78
2023/03/17 07:22:08;;;;;;;8.82;4.57;;;;;;;;;;6065819;23;20462;-78
2023/03/17 07:24:35;;;;;;;5.85;4.20;;;;;;;;;;6066177;23;20663;-78
2023/03/17 07:27:01;;;;;;;8.48;4.35;;;;;;;;;;6066810;23;20416;-78
2023/03/17 07:29:28;;;;;;;7.68;4.65;;;;;;;;;;6065573;23;20031;-79
2023/03/17 07:31:56;;;;;;;10.02;4.25;;;;;;;;;;6065270;23;20398;-78
2023/03/17 07:34:23;;;;;;;9.23;4.65;;;;;;;;;;6066100;23;20102;-78
2023/03/17 07:36:49;;;;;;;7.55;4.03;;;;;;;;;;6066571;23;20026;-78
2023/03/17 07:39:16;;;;;;;6.90;4.40;;;;;;;;;;6067360;23;20033;-79
2023/03/17 07:41:43;;;;;;;8.48;4.25;;;;;;;;;;6066922;23;20030;-78
2023/03/17 07:44:10;;;;;;;5.40;4.05;;;;;;;;;;6067382;23;20102;-78
2023/03/17 07:46:37;;;;;;;8.55;4.85;;;;;;;;;;6066347;23;20027;-79
2023/03/17 07:49:05;;;;;;;8.57;4.18;;;;;;;;;;6066144;23;20029;-80
2023/03/17 07:51:35;;;;;;;10.13;5.03;;;;;;;;;;6066938;23;20029;-82
2023/03/17 07:54:02;;;;;;;7.68;3.92;;;;;;;;;;6046004;23;20033;-82
2023/03/17 07:56:30;;;;;;;9.73;4.35;;;;;;;;;;6074354;23;20034;-82
2023/03/17 07:58:57;;;;;;;8.88;3.90;;;;;;;;;;6073808;23;20030;-84
2023/03/17 08:01:26;;;;;;;5.35;4.20;;;;;;;;;;6069542;23;20106;-83
2023/03/17 08:03:55;;;;;;;8.38;4.53;;;;;;;;;;6069071;23;20358;-82
2023/03/17 08:06:24;;;;;;;5.82;4.13;;;;;;;;;;6067798;23;20365;-82
2023/03/17 08:08:54;;;;;;;4.85;3.80;;;;;;;;;;6067896;23;20022;-83
2023/03/17 08:11:22;;;;;;;7.32;3.83;;;;;;;;;;6068108;23;20019;-82
2023/03/17 08:13:49;;;;;;;7.68;4.05;;;;;;;;;;6043116;23;20033;-81
2023/03/17 08:16:16;;;;;;;8.88;3.67;;;;;;;;;;6065549;23;20023;-78
2023/03/17 08:18:43;;;;;;;5.88;3.67;;;;;;;;;;6066649;23;20070;-76
2023/03/17 08:21:10;;;;;;;7.68;3.65;;;;;;;;;;6058851;23;20466;-73
2023/03/17 08:23:40;;;;;;;4.93;3.17;;;;;;;;;;6064858;23;20058;-74
2023/03/17 08:26:07;;;;;;;7.15;3.50;;;;;;;;;;6088309;23;20023;-75
2023/03/17 08:28:34;;;;;;;6.25;3.22;;;;;;;;;;6064525;23;20634;-74
2023/03/17 08:31:13;;;;;;;5.57;3.70;;;;;;;;;;6038984;23;20019;-75
2023/03/17 08:33:41;;;;;;;4.45;3.58;;;;;;;;;;6064265;23;20031;-74
2023/03/17 08:36:08;;;;;;;4.80;3.13;;;;;;;;;;6041377;23;20027;-74
2023/03/17 08:38:36;;;;;;;3.90;2.70;;;;;;;;;;6064778;23;20045;-74
2023/03/17 08:41:05;;;;;;;7.05;3.58;;;;;;;;;;6063945;23;20015;-75
2023/03/17 08:43:33;;;;;;;4.22;2.85;;;;;;;;;;6064319;23;20029;-73
2023/03/17 08:46:16;;;;;;;5.32;3.08;;;;;;;;;;6061481;23;20038;-73
2023/03/17 08:48:45;;;;;;;6.30;2.90;;;;;;;;;;6062227;23;20097;-73
2023/03/17 08:51:12;;;;;;;4.75;3.30;;;;;;;;;;6063300;23;20046;-73
2023/03/17 08:53:43;;;;;;;4.82;2.95;;;;;;;;;;6040301;23;20027;-73
2023/03/17 08:56:10;;;;;;;7.95;3.30;;;;;;;;;;6063160;23;20027;-72
2023/03/17 08:58:39;;;;;;;4.38;3.00;;;;;;;;;;6062689;23;20038;-73
2023/03/17 09:01:09;;;;;;;4.80;2.88;;;;;;;;;;6062419;23;20471;-74
2023/03/17 09:03:38;;;;;;;5.20;3.00;;;;;;;;;;6062608;23;20111;-73
2023/03/17 09:06:06;;;;;;;6.88;3.40;;;;;;;;;;6063265;23;20031;-74
2023/03/17 09:08:34;;;;;;;7.95;5.45;;;;;;;;;;6062191;23;20050;-73
2023/03/17 09:11:04;;;;;;;5.72;2.95;;;;;;;;;;6062247;23;20059;-73
2023/03/17 09:13:36;;;;;;;5.88;3.30;;;;;;;;;;6063055;23;20023;-75
2023/03/17 09:16:03;;;;;;;4.85;3.03;;;;;;;;;;6062249;23;20030;-77
2023/03/17 09:18:31;;;;;;;4.60;2.80;;;;;;;;;;6039436;23;20166;-76
2023/03/17 09:20:59;;;;;;;5.53;2.67;;;;;;;;;;6062206;23;20027;-76
2023/03/17 09:23:25;;;;;;;3.17;2.47;;;;;;;;;;6062793;23;20037;-75
2023/03/17 09:25:53;;;;;;;3.35;2.45;;;;;;;;;;6062966;23;20023;-76
2023/03/17 09:28:20;;;;;;;6.95;2.85;;;;;;;;;;6062687;23;20037;-76
2023/03/17 09:30:47;;;;;;;6.07;3.20;;;;;;;;;;6061951;23;20101;-75
2023/03/17 09:33:15;;;;;;;5.18;2.50;;;;;;;;;;6086801;23;20114;-75
2023/03/17 09:35:42;;;;;;;4.78;2.47;;;;;;;;;;6063171;23;20062;-75
2023/03/17 09:38:09;;;;;;;3.55;2.63;;;;;;;;;;6062429;23;20038;-75
2023/03/17 09:40:43;;;;;;;5.88;3.15;;;;;;;;;;6062853;23;20036;-76
2023/03/17 09:43:27;;;;;;;3.10;2.38;;;;;;;;;;6062283;23;20354;-76
2023/03/17 09:45:55;;;;;;;6.07;2.50;;;;;;;;;;6086586;23;20038;-76
2023/03/17 09:48:47;;;;;;;5.22;2.67;;;;;;;;;;6062918;23;20022;-75
2023/03/17 09:51:17;;;;;;;4.85;2.45;;;;;;;;;;6038936;23;20070;-76
2023/03/17 09:54:02;;;;;;;6.07;2.53;;;;;;;;;;6062121;23;20122;-76
2023/03/17 09:56:31;;;;;;;6.72;2.70;;;;;;;;;;6062651;23;20026;-76
2023/03/17 09:58:58;;;;;;;4.03;2.13;;;;;;;;;;6061963;23;20065;-76
2023/03/17 10:01:26;;;;;;;3.78;2.25;;;;;;;;;;6086078;23;20035;-76
2023/03/17 10:03:53;;;;;;;4.07;2.58;;;;;;;;;;6092011;23;20509;-82
2023/03/17 10:06:23;;;;;;;3.40;2.33;;;;;;;;;;6068954;23;20022;-77
2023/03/17 10:08:57;;;;;;;3.35;2.92;;;;;;;;;;6092712;23;20037;-77
2023/03/17 10:11:41;;;;;;;3.75;1.95;;;;;;;;;;6061338;23;20447;-76
2023/03/17 10:14:45;;;;;;;3.38;2.08;;;;;;;;;;6061974;23;20033;-76
2023/03/17 10:17:11;;;;;;;;;;;;;;;;;;6058527;23;20074;-76
2023/03/17 10:19:58;;;;;;;4.57;1.77;;;;;;;;;;6036836;23;19918;-76
2023/03/17 10:22:47;;;;;;;3.38;1.83;;;;;;;;;;6081151;23;20023;-76
2023/03/17 10:25:19;;;;;;;2.47;1.95;;;;;;;;;;6039371;23;20026;-75
2023/03/17 10:28:08;;;;;;;4.00;2.85;;;;;;;;;;6063267;23;20049;-77
2023/03/17 10:30:35;;;;;;;3.20;2.00;;;;;;;;;;6068332;23;20034;-77
2023/03/17 10:33:05;;;;;;;3.42;2.25;;;;;;;;;;6063605;23;20025;-77
2023/03/17 10:35:35;;;;;;;3.72;1.90;;;;;;;;;;6063640;23;20023;-77
2023/03/17 10:38:22;;;;;;;4.65;2.45;;;;;;;;;;6040163;23;20034;-76
2023/03/17 10:40:58;;;;;;;2.08;1.73;;;;;;;;;;6061208;23;20030;-76
2023/03/17 10:43:29;;;;;;;2.55;1.90;;;;;;;;;;6062861;23;20085;-76
2023/03/17 10:46:02;;;;;;;1.92;1.60;;;;;;;;;;6063420;23;20033;-75
2023/03/17 10:48:30;;;;;;;;;;;;;;;;;;6063966;23;20030;-76
2023/03/17 10:51:00;;;;;;;3.90;1.60;;;;;;;;;;6016234;23;19928;-76
2023/03/17 10:53:27;;;;;;;2.75;1.35;;;;;;;;;;6063551;23;20027;-76
2023/03/17 10:56:00;;;;;;;4.40;1.55;;;;;;;;;;6086996;23;20026;-76
2023/03/17 10:58:36;;;;;;;;;;;;;;;;;;6064830;23;20031;-81
2023/03/17 11:01:21;;;;;;;4.30;1.67;;;;;;;;;;6041553;23;19918;-77
2023/03/17 11:03:48;;;;;;;4.18;1.83;;;;;;;;;;6087089;23;20041;-77
2023/03/17 11:06:18;;;;;;;3.25;1.33;;;;;;;;;;6063192;23;20027;-76
2023/03/17 11:08:49;;;;;;;1.63;1.20;;;;;;;;;;6062632;23;20409;-77
2023/03/17 11:11:30;;;;;;;3.60;1.58;;;;;;;;;;6062488;23;20026;-76
2023/03/17 11:14:04;;;;;;;3.15;1.45;;;;;;;;;;6100579;23;20033;-82
2023/03/17 11:16:34;;;;;;;2.80;1.20;;;;;;;;;;6079218;23;20023;-82
2023/03/17 11:19:01;;;;;;;2.75;1.38;;;;;;;;;;6064720;23;20039;-77
2023/03/17 11:21:29;;;;;;;2.45;1.50;;;;;;;;;;6063785;23;20029;-77
2023/03/17 11:24:12;;;;;;;1.80;1.13;;;;;;;;;;6061980;23;20105;-77
2023/03/17 11:26:43;;;;;;;2.90;1.10;;;;;;;;;;6063067;23;20074;-76
2023/03/17 11:29:21;;;;;;;2.65;0.98;;;;;;;;;;6090503;23;20023;-85
2023/03/17 11:32:35;;;;;;;1.60;1.30;;;;;;;;;;6096541;23;20047;-86
2023/03/17 11:35:18;;;;;;;2.65;1.33;;;;;;;;;;6041463;23;20031;-85
2023/03/17 11:38:11;;;;;;;4.90;1.05;;;;;;;;;;6045292;23;20019;-86
2023/03/17 11:40:51;;;;;;;1.98;1.20;;;;;;;;;;6090034;23;20033;-84
2023/03/17 11:43:51;;;;;;;1.58;1.10;;;;;;;;;;6090936;23;20019;-85
2023/03/17 11:46:23;;;;;;;3.83;1.00;;;;;;;;;;6089117;23;20023;-84
2023/03/17 11:48:56;;;;;;;2.55;1.30;;;;;;;;;;6091024;23;20086;-84
2023/03/17 11:51:38;;;;;;;;;;;;;;;;;;6092050;23;20023;-84
2023/03/17 11:54:27;;;;;;;3.05;1.33;;;;;;;;;;6043810;23;20203;-84
2023/03/17 11:57:01;;;;;;;3.45;1.10;;;;;;;;;;6090305;23;20052;-86
2023/03/17 11:59:45;;;;;;;1.60;1.17;;;;;;;;;;6067281;23;20130;-85
2023/03/17 12:02:37;;;;;;;2.25;1.25;;;;;;;;;;6091550;23;20019;-80
2023/03/17 12:05:12;;;;;;;2.40;1.15;;;;;;;;;;6090453;23;20034;-81
2023/03/17 12:08:17;;;;;;;1.50;1.17;;;;;;;;;;6066566;23;20037;-81
2023/03/17 12:10:46;;;;;;;2.03;1.40;;;;;;;;;;6037067;23;20019;-80
2023/03/17 12:13:31;;;;;;;1.75;1.40;;;;;;;;;;6067177;23;20010;-80
2023/03/17 12:16:04;;;;;;;3.92;1.20;;;;;;;;;;6090740;23;20029;-77
2023/03/17 12:18:53;;;;;;;3.35;1.35;;;;;;;;;;6061898;23;20018;-77
2023/03/17 12:21:23;;;;;;;3.55;1.15;;;;;;;;;;6087632;23;20023;-77
2023/03/17 12:24:24;;;;;;;2.38;1.25;;;;;;;;;;6089347;23;20101;-77
2023/03/17 12:27:22;;;;;;;4.68;1.33;;;;;;;;;;6049993;23;20034;-77
2023/03/17 12:30:00;;;;;;;3.55;1.27;;;;;;;;;;6033791;23;20925;-76
2023/03/17 12:32:44;;;;;;;2.88;1.08;;;;;;;;;;6065489;23;20029;-78
2023/03/17 12:35:27;;;;;;;1.05;0.90;;;;;;;;;;6067096;23;20042;-78
2023/03/17 12:37:55;;;;;;;4.25;1.30;;;;;;;;;;6092671;23;20046;-78
2023/03/17 12:40:24;;;;;;;1.13;1.02;;;;;;;;;;6044963;23;20060;-78
2023/03/17 12:43:03;;;;;;;2.28;1.30;;;;;;;;;;6067281;23;20023;-78
2023/03/17 12:45:36;;;;;;;2.50;0.77;;;;;;;;;;6092713;23;20029;-78
2023/03/17 12:48:16;;;;;;;1.23;0.85;;;;;;;;;;6090545;23;20029;-77
2023/03/17 12:51:05;;;;;;;1.90;1.00;;;;;;;;;;6089861;23;20018;-78
2023/03/17 12:53:43;;;;;;;2.13;1.23;;;;;;;;;;6089308;23;20414;-78
2023/03/17 12:56:30;;;;;;;3.78;1.25;;;;;;;;;;6064153;23;20461;-86
2023/03/17 12:59:08;;;;;;;1.25;1.02;;;;;;;;;;6089445;23;20035;-85
2023/03/17 13:01:56;;;;;;;1.95;0.80;;;;;;;;;;6064294;23;20023;-86
2023/03/17 13:04:24;;;;;;;1.17;0.88;;;;;;;;;;6063005;23;20026;-77
2023/03/17 13:07:03;;;;;;;1.25;0.80;;;;;;;;;;6087097;23;20469;-77
2023/03/17 13:09:37;;;;;;;4.38;0.93;;;;;;;;;;6087071;23;20067;-76
2023/03/17 13:12:05;;;;;;;0.98;0.52;;;;;;;;;;6087582;23;20031;-76
2023/03/17 13:14:45;;;;;;;2.15;0.82;;;;;;;;;;6062809;23;20029;-77
2023/03/17 13:17:18;;;;;;;1.30;0.85;;;;;;;;;;6063122;23;20023;-77
2023/03/17 13:20:16;;;;;;;1.65;0.88;;;;;;;;;;6086768;23;20030;-76
2023/03/17 13:23:08;;;;;;;0.95;0.80;;;;;;;;;;6033389;23;20029;-76
2023/03/17 13:25:50;;;;;;;2.13;1.02;;;;;;;;;;6086339;23;20023;-76
2023/03/17 13:28:24;;;;;;;1.15;0.75;;;;;;;;;;6039256;23;20023;-79
2023/03/17 13:31:08;;;;;;;2.35;1.00;;;;;;;;;;6065715;23;20026;-76
2023/03/17 13:33:48;;;;;;;1.23;0.80;;;;;;;;;;6087638;23;20093;-78
2023/03/17 13:36:19;;;;;;;2.28;1.00;;;;;;;;;;6067955;23;20029;-85
2023/03/17 13:39:14;;;;;;;1.33;0.90;;;;;;;;;;6090900;23;20023;-86
2023/03/17 13:42:05;;;;;;;1.27;0.68;;;;;;;;;;6085311;23;20029;-86
2023/03/17 13:45:02;;;;;;;1.00;0.60;;;;;;;;;;6088254;23;20022;-85
2023/03/17 13:47:37;;;;;;;0.80;0.80;;;;;;;;;;6062915;23;20030;-86
2023/03/17 13:50:14;;;;;;;1.77;1.00;;;;;;;;;;6065139;23;20022;-85
2023/03/17 13:52:52;;;;;;;1.60;0.98;;;;;;;;;;6090227;23;20029;-86
2023/03/17 13:55:19;;;;;;;1.50;0.77;;;;;;;;;;6065052;23;20030;-86
2023/03/17 13:57:57;;;;;;;1.65;0.85;;;;;;;;;;6090109;23;20023;-86
2023/03/17 14:00:27;;;;;;;1.42;0.70;;;;;;;;;;6065642;23;20034;-86
2023/03/17 14:03:29;;;;;;;1.05;0.60;;;;;;;;;;6066829;23;20054;-87
2023/03/17 14:05:56;;;;;;;1.25;0.60;;;;;;;;;;6087454;23;20061;-88
2023/03/17 14:08:36;;;;;;;1.15;0.75;;;;;;;;;;6067548;23;20023;-86
2023/03/17 14:11:25;;;;;;;1.50;0.80;;;;;;;;;;6064439;23;20058;-86
2023/03/17 14:14:02;;;;;;;0.90;0.70;;;;;;;;;;6063997;23;20345;-86
2023/03/17 14:16:31;;;;;;;0.88;0.65;;;;;;;;;;6092185;23;20355;-86
2023/03/17 14:19:26;;;;;;;1.70;0.73;;;;;;;;;;6068215;23;20031;-86
2023/03/17 14:22:03;;;;;;;1.88;0.80;;;;;;;;;;6045493;23;20026;-85
2023/03/17 14:25:10;;;;;;;1.42;0.73;;;;;;;;;;6071998;23;20026;-85
2023/03/17 14:27:38;;;;;;;0.73;0.50;;;;;;;;;;6071569;23;20022;-88
2023/03/17 14:30:11;;;;;;;1.00;0.73;;;;;;;;;;6090976;23;20030;-86
2023/03/17 14:32:38;;;;;;;0.93;0.75;;;;;;;;;;6064804;23;20003;-86
2023/03/17 14:35:56;;;;;;;1.02;0.65;;;;;;;;;;6071895;23;20035;-86
2023/03/17 14:38:26;;;;;;;1.02;0.85;;;;;;;;;;6095264;23;20035;-84
2023/03/17 14:41:05;;;;;;;1.67;0.77;;;;;;;;;;6071106;23;20035;-84
2023/03/17 14:43:35;;;;;;;0.82;0.70;;;;;;;;;;6048995;23;20051;-82
2023/03/17 14:46:16;;;;;;;1.10;0.70;;;;;;;;;;6038084;23;20053;-82
2023/03/17 14:48:46;;;;;;;1.15;0.80;;;;;;;;;;6046334;23;20015;-84
2023/03/17 14:51:34;;;;;;;1.65;1.05;;;;;;;;;;6044661;23;20014;-84
2023/03/17 14:54:19;;;;;;;1.90;0.90;;;;;;;;;;6044301;23;20078;-85
2023/03/17 14:56:50;;;;;;;1.70;0.93;;;;;;;;;;6045841;23;20011;-86
2023/03/17 14:59:22;;;;;;;1.75;0.60;;;;;;;;;;6030421;23;20058;-84
2023/03/17 15:01:53;;;;;;;2.83;0.70;;;;;;;;;;6015311;23;20022;-83
2023/03/17 15:04:28;;;;;;;1.38;0.82;;;;;;;;;;6014807;23;20027;-83
2023/03/17 15:06:56;;;;;;;2.20;0.70;;;;;;;;;;6014850;23;20027;-84
2023/03/17 15:09:32;;;;;;;2.80;0.80;;;;;;;;;;6014844;23;20030;-83